Time;durP1;ratioP1;P1;durP2;ratioP2;P2;SDS_P1;SDS_P2;PMS_P1;PMS_P2;Temp;Humidity;BMP_temperature;BMP_pressure;BME280_temperature;BME280_humidity;BME280_pressure;Samples;Min_cycle;Max_cycle;Signal;HPM_P1;HPM_P2
2022/06/13 00:00:30;;;;;;;6.27;5.60;;;17.20;99.90;;;;;;6088690;23;20450;-80
2022/06/13 00:02:58;;;;;;;5.43;4.93;;;17.20;99.90;;;;;;6091094;23;21156;-81
2022/06/13 00:05:25;;;;;;;5.37;4.40;;;17.30;99.90;;;;;;6089386;23;21014;-81
2022/06/13 00:07:54;;;;;;;5.60;4.30;;;17.30;99.90;;;;;;6091077;23;20438;-81
2022/06/13 00:10:21;;;;;;;5.90;4.57;;;17.20;99.90;;;;;;6089347;23;20937;-81
2022/06/13 00:12:48;;;;;;;4.43;4.13;;;17.20;99.90;;;;;;6086248;23;20471;-81
2022/06/13 00:15:16;;;;;;;4.73;4.33;;;17.30;99.90;;;;;;6088602;23;20531;-81
2022/06/13 00:17:43;;;;;;;4.67;4.27;;;17.30;99.90;;;;;;6070818;23;20892;-80
2022/06/13 00:20:11;;;;;;;4.40;3.37;;;17.30;99.90;;;;;;6086201;23;20477;-80
2022/06/13 00:22:38;;;;;;;5.60;4.67;;;17.30;99.90;;;;;;6089165;23;20464;-81
2022/06/13 00:25:08;;;;;;;5.33;4.43;;;17.30;99.90;;;;;;6088662;23;20466;-81
2022/06/13 00:27:35;;;;;;;6.57;5.30;;;17.20;99.90;;;;;;6090220;23;20446;-80
2022/06/13 00:30:06;;;;;;;5.87;5.30;;;17.20;99.90;;;;;;6085586;23;20492;-80
2022/06/13 00:32:33;;;;;;;6.53;5.93;;;17.10;99.90;;;;;;6090122;23;20458;-80
2022/06/13 00:35:01;;;;;;;6.70;5.03;;;17.10;99.90;;;;;;6088182;23;20466;-80
2022/06/13 00:37:29;;;;;;;4.70;4.30;;;17.10;99.90;;;;;;6090757;23;20949;-81
2022/06/13 00:39:56;;;;;;;5.80;5.30;;;17.10;99.90;;;;;;6091019;23;20798;-81
2022/06/13 00:42:26;;;;;;;5.80;5.30;;;17.10;99.90;;;;;;6087225;23;20544;-80
2022/06/13 00:45:19;;;;;;;5.53;5.13;;;17.10;99.90;;;;;;6090589;23;20485;-80
2022/06/13 00:47:50;;;;;;;6.00;5.50;;;17.20;99.90;;;;;;6071421;23;20453;-80
2022/06/13 00:50:24;;;;;;;8.47;6.17;;;17.10;99.90;;;;;;6102494;23;20434;-80
2022/06/13 00:52:56;;;;;;;6.70;6.10;;;17.10;99.90;;;;;;6083261;23;20460;-80
2022/06/13 00:55:30;;;;;;;6.97;6.30;;;17.10;99.90;;;;;;6091354;23;20473;-80
2022/06/13 00:58:00;;;;;;;7.37;6.70;;;17.10;99.90;;;;;;6090293;23;20446;-80
2022/06/13 01:00:31;;;;;;;8.13;7.40;;;17.10;99.90;;;;;;6099856;23;20478;-80
2022/06/13 01:03:02;;;;;;;7.60;6.93;;;17.10;99.90;;;;;;6115731;23;20481;-80
2022/06/13 01:05:34;;;;;;;7.60;6.70;;;17.10;99.90;;;;;;6111895;23;21044;-80
2022/06/13 01:08:03;;;;;;;6.40;5.90;;;17.10;99.90;;;;;;6095248;23;20435;-80
2022/06/13 01:13:46;;;;;;;7.97;7.23;;;17.10;99.90;;;;;;6101263;23;20465;-80
2022/06/13 01:16:28;;;;;;;7.13;6.63;;;17.10;99.90;;;;;;6115322;23;20442;-80
2022/06/13 01:19:43;;;;;;;7.50;6.90;;;17.10;99.90;;;;;;6113587;23;20507;-79
2022/06/13 01:22:45;;;;;;;8.53;7.33;;;17.20;99.90;;;;;;6029326;23;20488;-80
2022/06/13 01:25:33;;;;;;;6.20;5.80;;;17.20;99.90;;;;;;6002816;23;20855;-80
2022/06/13 01:28:21;;;;;;;6.30;5.80;;;17.20;99.90;;;;;;6050417;23;20438;-80
2022/06/13 01:31:11;;;;;;;6.47;5.50;;;17.10;99.90;;;;;;6092459;23;20466;-80
2022/06/13 01:33:51;;;;;;;5.60;5.20;;;17.20;99.90;;;;;;6082757;23;20833;-81
2022/06/13 01:36:32;;;;;;;4.50;4.20;;;17.20;99.90;;;;;;6088385;23;20466;-81
2022/06/13 01:39:24;;;;;;;5.23;4.80;;;17.20;99.90;;;;;;6091562;23;21037;-81
2022/06/13 01:42:03;;;;;;;5.27;4.87;;;17.20;99.90;;;;;;6088895;23;20462;-80
2022/06/13 01:44:41;;;;;;;5.40;5.00;;;17.20;99.90;;;;;;6088627;23;20561;-81
2022/06/13 01:47:15;;;;;;;4.90;4.50;;;17.20;99.90;;;;;;6087949;23;20438;-81
2022/06/13 01:49:58;;;;;;;4.90;4.53;;;17.20;99.90;;;;;;6089719;23;20994;-81
2022/06/13 01:52:34;;;;;;;5.70;5.20;;;17.30;99.90;;;;;;6089152;23;20464;-81
2022/06/13 01:55:11;;;;;;;5.33;4.73;;;17.30;99.90;;;;;;6088691;23;20449;-80
2022/06/13 01:57:43;;;;;;;4.83;4.43;;;17.30;99.90;;;;;;6083693;23;20438;-80
2022/06/13 02:00:14;;;;;;;4.83;4.40;;;17.40;99.90;;;;;;6087714;23;20441;-81
2022/06/13 02:02:48;;;;;;;5.00;3.90;;;17.30;99.90;;;;;;6088793;23;20861;-81
2022/06/13 02:05:23;;;;;;;4.50;4.00;;;17.30;99.90;;;;;;6085541;23;20965;-81
2022/06/13 02:07:56;;;;;;;4.97;4.57;;;17.30;99.90;;;;;;6090373;23;20442;-80
2022/06/13 02:10:28;;;;;;;5.33;4.43;;;17.20;99.90;;;;;;6087082;23;20446;-81
2022/06/13 02:13:01;;;;;;;4.37;3.47;;;17.20;99.90;;;;;;6088030;23;20485;-82
2022/06/13 02:15:34;;;;;;;3.80;3.50;;;17.20;99.90;;;;;;6088863;23;20890;-80
2022/06/13 02:18:09;;;;;;;4.10;3.80;;;17.30;99.90;;;;;;6082441;23;20443;-80
2022/06/13 02:20:39;;;;;;;4.53;4.10;;;17.30;99.90;;;;;;6088600;23;20660;-80
2022/06/13 02:23:12;;;;;;;4.63;3.60;;;17.30;99.90;;;;;;6087766;23;20497;-80
2022/06/13 02:25:48;;;;;;;4.23;3.83;;;17.30;99.90;;;;;;6087533;23;20484;-81
2022/06/13 02:28:20;;;;;;;4.43;4.03;;;17.30;99.90;;;;;;6081038;23;20443;-80
2022/06/13 02:30:51;;;;;;;3.60;3.30;;;17.20;99.90;;;;;;6064573;23;20442;-80
2022/06/13 02:33:25;;;;;;;4.87;3.80;;;17.20;99.90;;;;;;6086902;23;20450;-80
2022/06/13 02:35:57;;;;;;;4.13;3.57;;;17.20;99.90;;;;;;6088106;23;20441;-81
2022/06/13 02:38:30;;;;;;;5.63;4.13;;;17.20;99.90;;;;;;6086630;23;20790;-80
2022/06/13 02:41:03;;;;;;;4.30;3.90;;;17.20;99.90;;;;;;6087668;23;20933;-80
2022/06/13 02:43:34;;;;;;;5.50;4.00;;;17.20;99.90;;;;;;6087425;23;20493;-80
2022/06/13 02:46:06;;;;;;;4.57;3.37;;;17.20;99.90;;;;;;6088119;23;20630;-80
2022/06/13 02:48:40;;;;;;;5.67;3.47;;;17.10;99.90;;;;;;6086691;23;20798;-81
2022/06/13 02:51:18;;;;;;;4.00;3.13;;;17.00;99.90;;;;;;6089610;23;20438;-81
2022/06/13 02:53:52;;;;;;;4.20;3.67;;;17.00;99.90;;;;;;6098058;23;20468;-80
2022/06/13 02:56:28;;;;;;;4.10;3.70;;;16.90;99.90;;;;;;6090214;23;20448;-81
2022/06/13 02:59:06;;;;;;;3.87;3.50;;;16.90;99.90;;;;;;6084648;23;20521;-80
2022/06/13 03:01:39;;;;;;;3.47;2.90;;;16.90;99.90;;;;;;6086964;23;20458;-80
2022/06/13 03:04:13;;;;;;;4.40;4.00;;;16.80;99.90;;;;;;6089505;23;20521;-80
2022/06/13 03:06:53;;;;;;;3.63;3.33;;;16.70;99.90;;;;;;6090548;23;20460;-80
2022/06/13 03:09:27;;;;;;;4.90;3.80;;;16.60;99.90;;;;;;6088151;23;20446;-80
2022/06/13 03:12:02;;;;;;;5.93;3.30;;;16.60;99.90;;;;;;6090831;23;20461;-80
2022/06/13 03:14:45;;;;;;;10.97;4.53;;;16.50;99.90;;;;;;6088317;23;20440;-81
2022/06/13 03:17:23;;;;;;;5.60;3.60;;;16.40;99.90;;;;;;6081397;23;20565;-80
2022/06/13 03:19:56;;;;;;;4.07;3.40;;;16.40;99.90;;;;;;6090148;23;20446;-80
2022/06/13 03:22:31;;;;;;;4.70;3.77;;;16.30;99.90;;;;;;6090543;23;21003;-80
2022/06/13 03:25:07;;;;;;;5.30;3.40;;;16.20;99.90;;;;;;6090289;23;20592;-80
2022/06/13 03:27:38;;;;;;;8.50;4.00;;;16.10;99.90;;;;;;6088734;23;20430;-80
2022/06/13 03:30:08;;;;;;;8.57;3.70;;;16.10;99.90;;;;;;6091330;23;20435;-80
2022/06/13 03:32:39;;;;;;;5.60;3.40;;;16.00;99.90;;;;;;6088430;23;20874;-80
2022/06/13 03:35:12;;;;;;;3.87;3.40;;;15.90;99.90;;;;;;6091884;23;20453;-80
2022/06/13 03:37:43;;;;;;;5.90;3.47;;;15.90;99.90;;;;;;6088320;23;20447;-80
2022/06/13 03:40:15;;;;;;;5.43;3.57;;;15.90;99.90;;;;;;6090577;23;20442;-80
2022/06/13 03:42:47;;;;;;;7.80;3.57;;;15.80;99.90;;;;;;6087938;23;20470;-80
2022/06/13 03:45:19;;;;;;;6.53;3.70;;;15.80;99.90;;;;;;6089595;23;20450;-80
2022/06/13 03:47:50;;;;;;;4.00;3.47;;;15.80;99.90;;;;;;6091084;23;20495;-80
2022/06/13 03:50:24;;;;;;;4.87;3.17;;;15.70;99.90;;;;;;6091156;23;20521;-80
2022/06/13 03:52:57;;;;;;;5.67;4.43;;;15.70;99.90;;;;;;6081325;23;20458;-80
2022/06/13 03:55:29;;;;;;;4.07;3.67;;;15.70;99.90;;;;;;6087212;23;20533;-80
2022/06/13 03:58:05;;;;;;;6.57;3.77;;;15.70;99.90;;;;;;6084070;23;20447;-81
2022/06/13 04:00:39;;;;;;;5.53;3.70;;;15.70;99.90;;;;;;6091120;23;20445;-80
2022/06/13 04:03:07;;;;;;;7.93;3.37;;;15.70;99.90;;;;;;6088136;23;20470;-80
2022/06/13 04:05:38;;;;;;;4.70;3.40;;;15.70;99.90;;;;;;6090941;23;20489;-80
2022/06/13 04:08:08;;;;;;;5.97;3.83;;;15.70;99.90;;;;;;6083754;23;20443;-80
2022/06/13 04:10:53;;;;;;;5.67;4.30;;;15.60;99.90;;;;;;6089139;23;20443;-80
2022/06/13 04:13:34;;;;;;;6.90;4.00;;;15.70;99.90;;;;;;6085393;23;20458;-80
2022/06/13 04:16:15;;;;;;;5.20;3.17;;;15.60;99.90;;;;;;6085641;23;20944;-80
2022/06/13 04:19:01;;;;;;;6.50;3.40;;;15.60;99.90;;;;;;6084293;23;20443;-80
2022/06/13 04:21:39;;;;;;;4.80;3.40;;;15.70;99.90;;;;;;6089997;23;20455;-80
2022/06/13 04:24:19;;;;;;;5.60;3.67;;;15.70;99.90;;;;;;6090084;23;20480;-80
2022/06/13 04:26:53;;;;;;;4.83;3.50;;;15.80;99.90;;;;;;6079786;23;21026;-80
2022/06/13 04:29:29;;;;;;;5.53;3.67;;;15.80;99.90;;;;;;6090344;23;20532;-81
2022/06/13 04:32:02;;;;;;;6.77;3.20;;;15.80;99.90;;;;;;6089089;23;20472;-81
2022/06/13 04:34:34;;;;;;;4.30;3.43;;;15.80;99.90;;;;;;6090680;23;20883;-81
2022/06/13 04:37:04;;;;;;;6.50;3.30;;;15.80;99.90;;;;;;6099256;23;20437;-79
2022/06/13 04:39:36;;;;;;;7.80;3.77;;;15.80;99.90;;;;;;6095842;23;20521;-77
2022/06/13 04:42:05;;;;;;;4.77;3.37;;;15.80;99.90;;;;;;6099142;23;20462;-77
2022/06/13 04:44:35;;;;;;;7.10;3.97;;;15.80;99.90;;;;;;6096717;23;20492;-77
2022/06/13 04:47:04;;;;;;;7.80;3.77;;;15.90;99.90;;;;;;6097482;23;20594;-77
2022/06/13 04:49:36;;;;;;;12.20;4.07;;;16.00;99.90;;;;;;6080743;23;20822;-77
2022/06/13 04:52:10;;;;;;;5.47;4.20;;;16.00;99.90;;;;;;6105708;23;20458;-77
2022/06/13 04:54:42;;;;;;;9.00;3.93;;;16.10;99.90;;;;;;6073818;23;20794;-77
2022/06/13 04:57:12;;;;;;;8.07;3.37;;;16.10;99.90;;;;;;6091617;23;20443;-78
2022/06/13 04:59:41;;;;;;;5.70;3.70;;;16.10;99.90;;;;;;6091076;23;20422;-78
2022/06/13 05:02:12;;;;;;;4.00;3.60;;;16.10;99.90;;;;;;6091232;23;20543;-78
2022/06/13 05:04:43;;;;;;;6.80;4.20;;;16.10;99.90;;;;;;6084474;23;20451;-77
2022/06/13 05:07:14;;;;;;;6.50;4.40;;;16.10;99.90;;;;;;6093692;23;20470;-78
2022/06/13 05:09:44;;;;;;;6.47;3.60;;;16.20;99.90;;;;;;6099957;23;20448;-78
2022/06/13 05:12:17;;;;;;;5.20;3.57;;;16.20;99.90;;;;;;6097530;23;20477;-78
2022/06/13 05:14:49;;;;;;;4.50;3.60;;;16.30;99.90;;;;;;6102530;23;20438;-79
2022/06/13 05:17:51;;;;;;;4.67;3.40;;;16.40;99.90;;;;;;6096473;23;20503;-78
2022/06/13 05:20:25;;;;;;;5.53;3.60;;;16.40;99.90;;;;;;6082000;23;20425;-77
2022/06/13 05:23:10;;;;;;;5.20;3.70;;;16.50;99.90;;;;;;6097957;23;20544;-78
2022/06/13 05:25:46;;;;;;;6.20;3.70;;;16.50;99.90;;;;;;6096721;23;20450;-75
2022/06/13 05:28:16;;;;;;;5.87;3.23;;;16.50;99.90;;;;;;6099078;23;20446;-76
2022/06/13 05:30:44;;;;;;;5.87;3.80;;;16.50;99.90;;;;;;6096226;23;20449;-76
2022/06/13 05:33:12;;;;;;;5.73;3.50;;;16.50;99.90;;;;;;6094702;23;20965;-74
2022/06/13 05:35:43;;;;;;;5.03;3.30;;;16.60;99.90;;;;;;6088041;23;20496;-77
2022/06/13 05:38:16;;;;;;;5.50;3.07;;;16.70;99.90;;;;;;6096605;23;20458;-78
2022/06/13 05:40:43;;;;;;;6.37;3.50;;;16.90;99.90;;;;;;6099328;23;20525;-78
2022/06/13 05:43:13;;;;;;;8.23;3.73;;;17.00;99.90;;;;;;6094903;23;20443;-77
2022/06/13 05:45:41;;;;;;;6.40;3.57;;;17.00;99.90;;;;;;6103538;23;22154;-78
2022/06/13 05:48:13;;;;;;;6.00;3.40;;;17.00;99.90;;;;;;6091230;23;20874;-79
2022/06/13 05:50:40;;;;;;;3.87;3.10;;;17.00;99.90;;;;;;6120880;23;20437;-79
2022/06/13 05:53:09;;;;;;;5.50;3.47;;;17.00;99.90;;;;;;6092491;23;20459;-78
2022/06/13 05:55:38;;;;;;;4.97;3.50;;;17.00;99.90;;;;;;6097739;23;20520;-78
2022/06/13 05:58:08;;;;;;;6.03;3.57;;;17.10;99.90;;;;;;6102379;23;20443;-78
2022/06/13 06:00:39;;;;;;;6.23;3.30;;;17.20;99.90;;;;;;6093107;23;20430;-77
2022/06/13 06:03:07;;;;;;;5.73;3.20;;;17.20;99.90;;;;;;6079049;23;20429;-78
2022/06/13 06:05:34;;;;;;;5.07;2.90;;;17.20;99.90;;;;;;6095868;23;20454;-78
2022/06/13 06:08:01;;;;;;;5.93;3.00;;;17.30;99.90;;;;;;6098003;23;20937;-78
2022/06/13 06:10:32;;;;;;;4.50;3.50;;;17.30;99.90;;;;;;6094470;23;20438;-78
2022/06/13 06:13:00;;;;;;;4.50;2.90;;;17.40;99.90;;;;;;6073455;23;20473;-79
2022/06/13 06:15:28;;;;;;;5.70;2.93;;;17.50;99.90;;;;;;6082547;23;20518;-79
2022/06/13 06:17:55;;;;;;;6.97;3.40;;;17.60;99.90;;;;;;6085646;23;20430;-79
2022/06/13 06:20:23;;;;;;;5.37;3.50;;;17.70;99.90;;;;;;6091706;23;20425;-80
2022/06/13 06:22:50;;;;;;;3.43;2.30;;;17.80;99.90;;;;;;6092415;23;21099;-77
2022/06/13 06:25:18;;;;;;;5.23;3.57;;;17.90;99.90;;;;;;6083960;23;20450;-77
2022/06/13 06:27:45;;;;;;;3.50;2.73;;;17.90;99.90;;;;;;6085314;23;20445;-78
2022/06/13 06:30:16;;;;;;;2.97;2.60;;;18.00;99.90;;;;;;6094486;23;20461;-76
2022/06/13 06:32:43;;;;;;;5.13;3.03;;;18.00;99.90;;;;;;6088821;23;20438;-76
2022/06/13 06:35:10;;;;;;;3.07;2.63;;;18.10;99.90;;;;;;6078115;23;20446;-75
2022/06/13 06:37:39;;;;;;;4.87;2.63;;;18.10;99.90;;;;;;6085941;23;20845;-77
2022/06/13 06:40:08;;;;;;;6.40;2.97;;;18.20;99.90;;;;;;6081911;23;20455;-76
2022/06/13 06:42:35;;;;;;;4.40;3.07;;;18.20;99.90;;;;;;6093792;23;20508;-77
2022/06/13 06:45:02;;;;;;;6.53;3.23;;;18.30;99.90;;;;;;6082801;23;20443;-77
2022/06/13 06:47:31;;;;;;;5.60;2.80;;;18.40;99.90;;;;;;6083145;23;20462;-78
2022/06/13 06:49:58;;;;;;;7.10;3.30;;;18.50;99.90;;;;;;6084477;23;20444;-77
2022/06/13 06:52:25;;;;;;;5.70;3.30;;;18.60;99.90;;;;;;6088957;23;20513;-78
2022/06/13 07:00:22;;;;;;;6.57;3.30;;;19.20;99.90;;;;;;6075410;23;20430;-77
2022/06/13 07:02:51;;;;;;;4.77;2.83;;;19.40;99.90;;;;;;6088504;23;20967;-77
2022/06/13 07:05:19;;;;;;;4.07;2.57;;;19.60;99.90;;;;;;6088088;23;20438;-77
2022/06/13 07:07:46;;;;;;;4.00;2.47;;;19.70;99.90;;;;;;6087222;23;20466;-78
2022/06/13 07:10:13;;;;;;;5.30;2.97;;;19.80;99.90;;;;;;6086669;23;20434;-77
2022/06/13 07:12:41;;;;;;;5.20;2.87;;;20.00;99.90;;;;;;6083056;23;20460;-78
2022/06/13 07:15:10;;;;;;;5.70;2.93;;;20.10;99.90;;;;;;6086939;23;20434;-78
2022/06/13 07:17:37;;;;;;;3.60;2.60;;;20.30;99.90;;;;;;6072386;23;20450;-78
2022/06/13 07:20:07;;;;;;;5.13;2.93;;;20.40;99.90;;;;;;6084067;23;20443;-77
2022/06/13 07:22:34;;;;;;;5.20;2.60;;;20.40;99.90;;;;;;6084243;23;20459;-78
2022/06/13 07:25:01;;;;;;;5.13;3.07;;;20.40;99.90;;;;;;6085657;23;20427;-78
2022/06/13 07:27:30;;;;;;;5.50;3.10;;;20.40;99.90;;;;;;6079058;23;20466;-76
2022/06/13 07:29:57;;;;;;;3.97;2.77;;;20.30;99.90;;;;;;6086383;23;20437;-77
2022/06/13 07:32:26;;;;;;;5.20;3.23;;;20.30;99.90;;;;;;6086848;23;20442;-79
2022/06/13 07:34:54;;;;;;;4.90;2.97;;;20.40;99.90;;;;;;6092110;23;20529;-77
2022/06/13 07:40:12;;;;;;;4.40;2.97;;;20.50;99.90;;;;;;6078928;23;20464;-77
2022/06/13 07:42:43;;;;;;;3.57;2.70;;;20.60;99.90;;;;;;6082116;23;20519;-78
2022/06/13 07:45:15;;;;;;;5.10;2.70;;;21.00;99.90;;;;;;6082108;23;20823;-78
2022/06/13 07:47:43;;;;;;;7.53;2.83;;;21.40;99.90;;;;;;6088819;23;20995;-78
2022/06/13 07:50:12;;;;;;;3.90;2.63;;;22.00;99.90;;;;;;6087659;23;20439;-77
2022/06/13 07:52:40;;;;;;;6.00;2.93;;;22.70;99.90;;;;;;6087517;23;20834;-80
2022/06/13 07:55:08;;;;;;;4.43;2.90;;;23.10;99.90;;;;;;6083786;23;20439;-78
2022/06/13 07:57:36;;;;;;;3.17;2.50;;;23.40;99.90;;;;;;6083930;23;20524;-79
2022/06/13 08:00:05;;;;;;;3.83;2.33;;;23.70;99.90;;;;;;6086021;23;20521;-79
2022/06/13 08:02:34;;;;;;;5.93;2.53;;;24.00;99.90;;;;;;6083795;23;20446;-80
2022/06/13 08:05:01;;;;;;;4.70;3.10;;;24.20;99.90;;;;;;6082955;23;20471;-78
2022/06/13 08:07:29;;;;;;;4.70;2.80;;;24.50;99.20;;;;;;6091691;23;20497;-79
2022/06/13 08:10:00;;;;;;;2.70;2.20;;;24.90;98.40;;;;;;6098542;23;20490;-80
2022/06/13 08:12:28;;;;;;;5.17;2.80;;;25.30;96.90;;;;;;6099066;23;20944;-78
2022/06/13 08:14:55;;;;;;;5.13;2.47;;;25.30;96.60;;;;;;6094749;23;20449;-80
2022/06/13 08:17:22;;;;;;;4.07;2.67;;;25.50;95.90;;;;;;6082776;23;20944;-80
2022/06/13 08:19:51;;;;;;;3.43;2.10;;;26.00;95.30;;;;;;6089198;23;20662;-79
2022/06/13 08:22:18;;;;;;;6.90;2.90;;;26.50;94.40;;;;;;6088921;23;20465;-79
2022/06/13 08:24:45;;;;;;;4.10;3.13;;;27.00;93.10;;;;;;6080244;23;20430;-79
2022/06/13 08:27:14;;;;;;;5.73;3.17;;;27.20;90.70;;;;;;6087770;23;20462;-79
2022/06/13 08:29:42;;;;;;;4.47;2.33;;;27.30;90.80;;;;;;6088380;23;20445;-79
2022/06/13 08:32:10;;;;;;;3.47;2.40;;;27.30;90.80;;;;;;6089367;23;20431;-80
2022/06/13 08:34:38;;;;;;;3.50;2.53;;;27.40;90.80;;;;;;6087860;23;20441;-80
2022/06/13 08:37:05;;;;;;;4.60;2.80;;;27.70;90.30;;;;;;6087939;23;20489;-80
2022/06/13 08:39:32;;;;;;;5.10;2.50;;;27.30;88.50;;;;;;6074276;23;20445;-79
2022/06/13 08:42:02;;;;;;;3.97;2.40;;;27.60;89.00;;;;;;6088550;23;20458;-80
2022/06/13 08:44:48;;;;;;;3.80;2.53;;;28.00;87.20;;;;;;6090320;23;20735;-80
2022/06/13 08:47:22;;;;;;;3.00;2.37;;;28.40;86.10;;;;;;6078876;23;20980;-78
2022/06/13 08:50:01;;;;;;;4.20;2.70;;;28.80;84.10;;;;;;6080332;23;20517;-79
2022/06/13 08:52:32;;;;;;;3.93;2.57;;;28.70;82.50;;;;;;6087136;23;20438;-86
2022/06/13 08:55:11;;;;;;;3.53;2.43;;;28.10;84.20;;;;;;6095528;23;20438;-79
2022/06/13 08:57:47;;;;;;;5.23;3.47;;;28.00;83.60;;;;;;6084898;23;21099;-82
2022/06/13 09:00:20;;;;;;;5.57;3.07;;;27.00;83.40;;;;;;6082144;23;20454;-82
2022/06/13 09:02:55;;;;;;;4.87;2.70;;;26.50;85.50;;;;;;6086743;23;20565;-83
2022/06/13 09:05:27;;;;;;;4.40;3.00;;;26.40;86.80;;;;;;6084980;23;20474;-83
2022/06/13 09:08:01;;;;;;;4.53;2.67;;;27.00;86.40;;;;;;6114606;23;21223;-83
2022/06/13 09:10:35;;;;;;;4.67;2.80;;;27.60;82.80;;;;;;6073240;23;20463;-84
2022/06/13 09:13:08;;;;;;;4.53;2.80;;;28.40;80.70;;;;;;6100573;23;20438;-83
2022/06/13 09:15:43;;;;;;;4.47;2.73;;;28.30;78.90;;;;;;6096961;23;20442;-85
2022/06/13 09:18:17;;;;;;;5.80;2.83;;;27.90;76.40;;;;;;6087327;23;20524;-84
2022/06/13 09:20:53;;;;;;;5.43;2.40;;;27.50;77.60;;;;;;6086043;23;20541;-84
2022/06/13 09:23:32;;;;;;;3.17;2.33;;;27.40;77.20;;;;;;6085396;23;21156;-84
2022/06/13 09:26:07;;;;;;;3.57;2.70;;;27.30;78.20;;;;;;6093168;23;20444;-84
2022/06/13 09:28:46;;;;;;;5.20;2.70;;;27.70;77.20;;;;;;6096634;23;20465;-82
2022/06/13 09:31:22;;;;;;;4.20;2.33;;;28.30;75.20;;;;;;6081113;23;20463;-85
2022/06/13 09:33:55;;;;;;;4.63;2.97;;;28.80;75.60;;;;;;6080588;23;20438;-83
2022/06/13 09:36:30;;;;;;;4.20;2.57;;;29.40;72.20;;;;;;6086906;23;20515;-83
2022/06/13 09:39:00;;;;;;;3.03;2.60;;;29.50;71.40;;;;;;6087809;23;20430;-83
2022/06/13 09:42:06;;;;;;;4.37;2.50;;;29.30;70.20;;;;;;6082862;23;20490;-83
2022/06/13 09:44:46;;;;;;;3.23;2.70;;;28.90;69.80;;;;;;6062886;23;20439;-83
2022/06/13 09:47:23;;;;;;;5.23;2.40;;;27.60;71.40;;;;;;6092362;23;20474;-83
2022/06/13 09:50:04;;;;;;;3.93;2.97;;;26.80;73.30;;;;;;6091440;23;20453;-83
2022/06/13 09:52:41;;;;;;;4.23;2.40;;;26.00;74.60;;;;;;6083701;23;21321;-83
2022/06/13 09:55:21;;;;;;;6.20;2.70;;;26.00;77.60;;;;;;6080435;23;20442;-84
2022/06/13 09:58:00;;;;;;;5.00;2.50;;;25.90;78.20;;;;;;6112271;23;20444;-84
2022/06/13 10:00:34;;;;;;;4.00;2.27;;;25.80;77.30;;;;;;6088954;23;20824;-82
2022/06/13 10:03:15;;;;;;;4.97;2.50;;;25.60;75.20;;;;;;6110614;23;20456;-83
2022/06/13 10:05:47;;;;;;;4.50;2.70;;;25.90;72.40;;;;;;6119571;23;20516;-83
2022/06/13 10:08:27;;;;;;;3.03;2.37;;;26.30;73.90;;;;;;6118312;23;20552;-83
2022/06/13 10:11:03;;;;;;;6.27;2.40;;;27.00;73.80;;;;;;6118168;23;20452;-84
2022/06/13 10:13:44;;;;;;;4.23;2.70;;;27.60;70.90;;;;;;6120250;23;20436;-83
2022/06/13 10:16:19;;;;;;;3.80;2.57;;;27.60;68.70;;;;;;6113248;23;20441;-83
2022/06/13 10:19:05;;;;;;;3.03;2.30;;;27.70;69.10;;;;;;6119238;23;20468;-84
2022/06/13 10:21:41;;;;;;;6.00;2.20;;;27.90;69.50;;;;;;6094489;23;20464;-83
2022/06/13 10:24:22;;;;;;;4.67;2.30;;;28.60;67.00;;;;;;6110940;23;20424;-83
2022/06/13 10:26:57;;;;;;;4.23;2.30;;;28.60;63.70;;;;;;6145020;23;20432;-84
2022/06/13 10:29:53;;;;;;;3.00;1.83;;;28.60;64.70;;;;;;6144938;23;20439;-81
2022/06/13 10:32:34;;;;;;;2.90;1.90;;;28.40;61.80;;;;;;6137898;23;20433;-83
2022/06/13 10:35:14;;;;;;;3.50;1.90;;;28.30;60.40;;;;;;6141341;23;20910;-84
2022/06/13 10:37:52;;;;;;;5.13;2.00;;;28.40;61.80;;;;;;6149655;23;20471;-85
2022/06/13 10:40:19;;;;;;;3.00;2.10;;;28.80;61.80;;;;;;6142083;23;20495;-84
2022/06/13 10:42:47;;;;;;;3.30;1.97;;;28.80;59.10;;;;;;6137877;23;20441;-83
2022/06/13 10:45:17;;;;;;;2.83;2.50;;;29.10;61.20;;;;;;6144649;23;20444;-83
2022/06/13 10:47:47;;;;;;;4.00;2.10;;;28.30;59.90;;;;;;6146514;23;20500;-82
2022/06/13 10:50:22;;;;;;;2.97;2.03;;;28.10;61.30;;;;;;6148054;23;20529;-83
2022/06/13 10:52:54;;;;;;;3.33;1.90;;;28.10;62.40;;;;;;6149584;23;20440;-82
2022/06/13 10:55:25;;;;;;;2.43;1.93;;;28.10;61.60;;;;;;6145293;23;20482;-83
2022/06/13 10:57:58;;;;;;;2.90;2.10;;;27.90;60.10;;;;;;6145968;23;20539;-82
2022/06/13 11:00:29;;;;;;;3.00;1.93;;;28.20;61.30;;;;;;6147409;23;20487;-88
2022/06/13 11:03:12;;;;;;;5.60;1.87;;;28.70;61.10;;;;;;6141379;23;20462;-82
2022/06/13 11:05:53;;;;;;;2.53;1.80;;;28.70;58.60;;;;;;6143368;23;20487;-90
2022/06/13 11:08:21;;;;;;;2.90;2.13;;;28.20;59.40;;;;;;6149864;23;20552;-90
2022/06/13 11:10:56;;;;;;;3.50;2.40;;;27.30;61.10;;;;;;6142141;23;20452;-81
2022/06/13 11:13:30;;;;;;;2.80;1.60;;;27.50;62.00;;;;;;6147886;23;20448;-81
2022/06/13 11:24:29;;;;;;;3.10;2.30;;;28.80;58.30;;;;;;6148826;23;20436;-81
2022/06/13 11:29:42;;;;;;;3.30;1.90;;;29.10;60.00;;;;;;6135073;23;20459;-81
2022/06/13 11:32:20;;;;;;;3.17;2.00;;;28.90;58.00;;;;;;6148390;23;20440;-81
2022/06/13 11:34:48;;;;;;;2.10;1.50;;;29.00;59.20;;;;;;6144471;23;20527;-81
2022/06/13 11:37:21;;;;;;;2.20;1.70;;;29.20;57.70;;;;;;6149189;23;20454;-81
2022/06/13 11:39:49;;;;;;;2.10;1.50;;;28.90;59.30;;;;;;6142791;23;20566;-80
2022/06/13 11:42:20;;;;;;;1.90;1.70;;;28.90;58.20;;;;;;6148210;23;20437;-82
2022/06/13 11:44:54;;;;;;;3.03;1.93;;;28.90;56.80;;;;;;6121347;23;21000;-80
2022/06/13 11:47:22;;;;;;;2.40;1.60;;;28.90;57.30;;;;;;6146184;23;20479;-81
2022/06/13 11:49:53;;;;;;;3.47;1.90;;;28.90;57.40;;;;;;6144311;23;20448;-81
2022/06/13 11:55:28;;;;;;;2.20;2.00;;;28.10;57.50;;;;;;6130677;23;20442;-81
2022/06/13 11:57:58;;;;;;;2.50;2.03;;;28.10;58.80;;;;;;6144171;23;20440;-81
2022/06/13 12:00:32;;;;;;;1.90;1.70;;;28.30;57.30;;;;;;6127517;23;21039;-80
2022/06/13 12:03:08;;;;;;;4.23;1.70;;;28.40;59.00;;;;;;6127145;23;20863;-81
2022/06/13 12:05:38;;;;;;;3.83;1.60;;;28.80;58.40;;;;;;6144417;23;20478;-85
2022/06/13 12:08:23;;;;;;;2.93;2.20;;;29.10;58.90;;;;;;6144896;23;20473;-80
2022/06/13 12:11:20;;;;;;;5.23;2.10;;;28.80;56.80;;;;;;6134808;23;20851;-82
2022/06/13 12:13:49;;;;;;;3.67;1.80;;;28.40;57.00;;;;;;6139596;23;20437;-81
2022/06/13 12:16:28;;;;;;;2.00;1.80;;;28.20;58.40;;;;;;6142260;23;20948;-82
2022/06/13 12:19:08;;;;;;;3.53;2.10;;;28.40;57.50;;;;;;6146607;23;20448;-81
2022/06/13 12:21:43;;;;;;;4.13;2.83;;;28.20;58.10;;;;;;6137274;23;20485;-81
2022/06/13 12:24:19;;;;;;;2.63;1.90;;;28.10;59.50;;;;;;6142257;23;20939;-81
2022/06/13 12:26:56;;;;;;;2.77;2.10;;;28.60;58.20;;;;;;6138360;23;20482;-81
2022/06/13 12:29:48;;;;;;;3.90;2.17;;;28.90;57.60;;;;;;6135364;23;20468;-81
2022/06/13 12:32:21;;;;;;;2.93;1.90;;;28.80;56.30;;;;;;6145321;23;20440;-82
2022/06/13 12:35:00;;;;;;;3.00;1.97;;;28.70;57.20;;;;;;6144151;23;20935;-82
2022/06/13 12:37:39;;;;;;;2.70;1.50;;;28.40;56.80;;;;;;6129212;23;20459;-82
2022/06/13 12:40:25;;;;;;;2.87;1.47;;;28.20;56.70;;;;;;6130681;23;20527;-81
2022/06/13 12:43:13;;;;;;;3.67;1.60;;;28.20;56.40;;;;;;6131992;23;20432;-81
2022/06/13 12:46:16;;;;;;;1.77;1.53;;;28.00;55.00;;;;;;6128826;23;20434;-80
2022/06/13 12:48:54;;;;;;;2.13;1.43;;;27.70;56.10;;;;;;6043180;23;20468;-80
2022/06/13 12:51:33;;;;;;;2.20;1.60;;;27.90;55.20;;;;;;6134666;23;20461;-80
2022/06/13 12:54:25;;;;;;;2.00;1.60;;;28.50;53.60;;;;;;6144684;23;20437;-82
2022/06/13 12:57:02;;;;;;;2.70;1.70;;;28.90;54.30;;;;;;6143052;23;20487;-82
2022/06/13 12:59:47;;;;;;;1.63;1.53;;;29.30;54.40;;;;;;6146414;23;20462;-82
2022/06/13 13:02:24;;;;;;;2.40;1.57;;;29.40;55.10;;;;;;6143651;23;20519;-82
2022/06/13 13:05:17;;;;;;;3.97;1.67;;;29.30;55.80;;;;;;6140561;23;20432;-82
2022/06/13 13:07:57;;;;;;;4.23;1.90;;;30.60;53.60;;;;;;6147277;23;20463;-82
2022/06/13 13:10:37;;;;;;;2.80;1.57;;;33.30;51.00;;;;;;6147855;23;20506;-82
2022/06/13 13:13:37;;;;;;;1.60;1.40;;;35.50;48.30;;;;;;6131356;23;20436;-82
2022/06/13 13:16:13;;;;;;;2.00;1.63;;;36.20;45.10;;;;;;6135047;23;20520;-80
2022/06/13 13:18:48;;;;;;;3.27;1.90;;;35.80;45.70;;;;;;6128113;23;21102;-82
2022/06/13 13:21:21;;;;;;;6.80;1.60;;;36.90;44.40;;;;;;6148015;23;20458;-82
2022/06/13 13:23:58;;;;;;;2.13;1.70;;;37.20;41.70;;;;;;6141921;23;20437;-83
2022/06/13 13:26:36;;;;;;;2.07;1.70;;;36.10;41.00;;;;;;6143286;23;20441;-82
2022/06/13 13:29:26;;;;;;;2.30;1.73;;;34.20;43.20;;;;;;6134832;23;20464;-82
2022/06/13 13:32:00;;;;;;;3.53;2.07;;;32.00;44.50;;;;;;6142507;23;20943;-82
2022/06/13 13:34:50;;;;;;;2.00;1.50;;;31.60;46.00;;;;;;6160944;23;20436;-79
2022/06/13 13:37:26;;;;;;;2.00;1.33;;;30.70;47.00;;;;;;6146574;23;20461;-82
2022/06/13 13:40:02;;;;;;;2.00;1.67;;;31.00;48.30;;;;;;6163295;23;20456;-82
2022/06/13 13:42:40;;;;;;;2.03;1.63;;;32.60;44.80;;;;;;6150346;23;20482;-81
2022/06/13 13:45:32;;;;;;;3.40;1.57;;;32.50;45.20;;;;;;6147263;23;20483;-80
2022/06/13 13:48:07;;;;;;;2.07;1.60;;;32.30;45.50;;;;;;6163230;23;20482;-81